Cisne, IL (62823)

12:54 AM CDT on August 28, 2016 (GMT -0500)
Uptown | | Change Station
Active Advisory: Flood Warning Active Notice: Record Report

Elev 441 ft 38.38 °N, 88.36 °W | Updated 4 minutes ago

Clear
Clear
75.1 °F
Feels Like 73 °F
N
0.0
Wind Variable Wind from NNW
Gusts 3.0 mph

Today
High -- | Low -- °F
--% Chance of Precip.
Yesterday
High -- | Low -- °F
Precip. -- in
Pressure 30.10 in
Visibility 10.0 miles
Clouds Clear
Heat Index 73 °F
Dew Point 74 °F
Humidity 96%
Rainfall 0.00 in
Snow Depth Not available.
6:19 AM 7:28 PM
Waning Crescent, 18% visible
METAR KFWC 280535Z AUTO 00000KT 10SM CLR 23/23 A3010 RMK AO1 T02300228
Pressure 30.10 in
Visibility 10.0 miles
Clouds Clear
Heat Index 73 °F
Dew Point 74 °F
Humidity 96%
Rainfall 0.00 in
Snow Depth Not available.
6:19 AM 7:28 PM
Waning Crescent, 18% visible
METAR KFWC 280535Z AUTO 00000KT 10SM CLR 23/23 A3010 RMK AO1 T02300228

10-Day Weather Forecast

Almanac

Astronomy

Aug. 28, 2016 Rise Set
Actual Time
Civil Twilight
Nautical Twilight
Astronomical Twilight
Moon
Length of Visible Light
Length of Day
Tomorrow will be .
, % of the Moon is Illuminated

Today's Extremes

State Highs State Lows

Community

WunderPhotos

Upload Photos

1,935,533 photos uploaded!

WunderBlog® & News

Nearby

Air Quality

  Air Quality AQ Index Pollutant
Not available.

Snow Depth

Station Depth Elevation

Earthquake Activity

City Distance Mag. Time & Date
Minimum magnitude displayed is 2.5.

Coastal Water Temperatures

Place Temperature

Stations

Nearby Weather Stations

Station Location Temp. Windchill Dew Point Humidity Wind Precip. Elev Updated Type
                   

Watches & Warnings

Flood Warning
Issued: 9:24 PM CDT Aug. 27, 2016 – National Weather Service

The Flood Warning continues for the Little Wabash River at Carmi.
* Until Sunday evening.
* At 9 PM Saturday the stage was 27.9 feet.
* Flood stage is 27.0 feet.
* Minor flooding is occurring and minor flooding is forecast.
* Forecast... the river will fall to below flood stage this
Sunday afternoon
* impact... at 27.0 feet... the inundation of County roads begins.


Lat... Lon 3826 8816 3801 8828 3791 8812 3793 8808
      3804 8813 3825 8802